createdAt,value
2019-01-10T00:00:24.904Z,101637.94
2019-01-10T00:02:53.733Z,101640.08
2019-01-10T00:05:22.313Z,101642.22
2019-01-10T00:07:50.800Z,101636.42
2019-01-10T00:10:19.469Z,101641.98
2019-01-10T00:12:47.942Z,101644.13
2019-01-10T00:15:18.352Z,101650.36
2019-01-10T00:17:47.056Z,101653.95
2019-01-10T00:20:17.181Z,101651.41
2019-01-10T00:22:46.118Z,101654.17
2019-01-10T00:25:15.535Z,101658.67
2019-01-10T00:27:50.327Z,101660.98
2019-01-10T00:30:20.218Z,101664.80
2019-01-10T00:32:48.830Z,101659.88
2019-01-10T00:35:17.445Z,101661.84
2019-01-10T00:37:46.134Z,101664.77
2019-01-10T00:40:16.457Z,101663.55
2019-01-10T00:42:49.478Z,101668.38
2019-01-10T00:45:17.433Z,101668.09
2019-01-10T00:47:46.451Z,101671.36
2019-01-10T00:50:20.146Z,101672.56
2019-01-10T00:52:48.832Z,101670.90
2019-01-10T00:55:17.610Z,101670.55
2019-01-10T00:57:46.362Z,101677.36
2019-01-10T01:00:20.876Z,101675.05
2019-01-10T01:02:49.559Z,101671.01
2019-01-10T01:05:18.510Z,101674.94
2019-01-10T01:07:47.181Z,101678.84
2019-01-10T01:10:21.371Z,101680.86
2019-01-10T01:12:58.229Z,101687.81
2019-01-10T01:15:20.920Z,101692.97
2019-01-10T01:17:49.358Z,101694.44
2019-01-10T01:20:20.207Z,101689.88
2019-01-10T01:22:48.821Z,101697.34
2019-01-10T01:25:17.452Z,101696.51
2019-01-10T01:27:45.987Z,101704.88
2019-01-10T01:30:25.513Z,101697.02
2019-01-10T01:32:55.366Z,101713.68
2019-01-10T01:35:23.978Z,101713.95
2019-01-10T01:37:52.606Z,101710.61
2019-01-10T01:40:21.828Z,101719.64
2019-01-10T01:42:50.469Z,101723.64
2019-01-10T01:45:20.509Z,101732.78
2019-01-10T01:47:49.213Z,101734.85
2019-01-10T01:50:20.107Z,101738.41
2019-01-10T01:52:48.660Z,101743.53
2019-01-10T01:55:17.230Z,101751.02
2019-01-10T01:57:45.869Z,101752.81
2019-01-10T02:00:19.923Z,101750.62
2019-01-10T02:02:48.443Z,101756.13
2019-01-10T02:05:17.516Z,101757.71
2019-01-10T02:07:46.078Z,101762.39
2019-01-10T02:10:17.970Z,101767.28
2019-01-10T02:12:46.502Z,101771.76
2019-01-10T02:15:15.289Z,101769.75
2019-01-10T02:17:48.771Z,101766.59
2019-01-10T02:20:15.725Z,101765.41
2019-01-10T02:22:44.526Z,101770.05
2019-01-10T02:25:19.349Z,101765.63
2019-01-10T02:27:48.026Z,101771.45
2019-01-10T02:30:21.923Z,101778.50
2019-01-10T02:32:50.475Z,101776.31
2019-01-10T02:35:19.102Z,101775.18
2019-01-10T02:37:48.001Z,101777.67
2019-01-10T02:40:16.577Z,101781.08
2019-01-10T02:42:45.201Z,101780.30
2019-01-10T02:45:15.976Z,101779.42
2019-01-10T02:47:45.938Z,101786.37
2019-01-10T02:50:20.104Z,101789.70
2019-01-10T02:52:48.722Z,101789.53
2019-01-10T02:55:17.630Z,101794.38
2019-01-10T02:57:46.169Z,101799.50
2019-01-10T03:00:22.546Z,101801.52
2019-01-10T03:02:51.161Z,101807.88
2019-01-10T03:05:20.059Z,101815.84
2019-01-10T03:07:48.765Z,101807.13
2019-01-10T03:10:20.291Z,101809.75
2019-01-10T03:12:48.754Z,101812.47
2019-01-10T03:15:17.544Z,101813.20
2019-01-10T03:17:46.108Z,101821.69
2019-01-10T03:20:17.905Z,101821.88
2019-01-10T03:22:46.560Z,101824.33
2019-01-10T03:25:15.212Z,101819.91
2019-01-10T03:27:43.782Z,101816.84
2019-01-10T03:30:15.089Z,101813.34
2019-01-10T03:32:43.980Z,101814.78
2019-01-10T03:35:14.707Z,101819.16
2019-01-10T03:37:44.385Z,101819.46
2019-01-10T03:40:15.530Z,101817.58
2019-01-10T03:42:46.082Z,101819.36
2019-01-10T03:45:18.046Z,101817.93
2019-01-10T03:47:59.630Z,101816.32
2019-01-10T03:50:28.101Z,101811.47
2019-01-10T03:52:56.571Z,101813.75
2019-01-10T03:55:26.383Z,101817.28
2019-01-10T03:57:54.894Z,101809.69
2019-01-10T04:00:24.107Z,101815.91
2019-01-10T04:02:52.670Z,101812.19
2019-01-10T04:05:21.598Z,101814.08
2019-01-10T04:07:50.329Z,101812.20
2019-01-10T04:10:19.123Z,101812.98
2019-01-10T04:12:47.756Z,101813.46
2019-01-10T04:15:18.383Z,101814.52
2019-01-10T04:17:48.349Z,101816.13
2019-01-10T04:20:19.703Z,101822.82
2019-01-10T04:22:48.219Z,101819.68
2019-01-10T04:25:16.908Z,101819.03
2019-01-10T04:27:46.413Z,101819.42
2019-01-10T04:30:17.256Z,101821.44
2019-01-10T04:32:45.844Z,101824.91
2019-01-10T04:35:14.513Z,101822.53
2019-01-10T04:37:42.984Z,101821.70
2019-01-10T04:40:16.866Z,101821.80
2019-01-10T04:42:45.310Z,101823.80
2019-01-10T04:45:14.113Z,101827.00
2019-01-10T04:47:43.870Z,101833.86
2019-01-10T04:50:14.733Z,101829.22
2019-01-10T04:52:46.367Z,101824.36
2019-01-10T04:55:15.056Z,101826.90
2019-01-10T04:57:43.772Z,101821.70
2019-01-10T05:00:15.587Z,101821.22
2019-01-10T05:02:44.187Z,101823.31
2019-01-10T05:05:12.632Z,101819.51
2019-01-10T05:07:41.144Z,101824.58
2019-01-10T05:10:11.138Z,101826.15
2019-01-10T05:12:41.743Z,101825.63
2019-01-10T05:15:14.836Z,101824.02
2019-01-10T05:17:43.407Z,101824.41
2019-01-10T05:20:14.932Z,101821.70
2019-01-10T05:22:43.401Z,101826.30
2019-01-10T05:25:12.179Z,101827.25
2019-01-10T05:27:40.647Z,101826.44
2019-01-10T05:30:18.336Z,101828.71
2019-01-10T05:32:48.171Z,101839.95
2019-01-10T05:35:16.710Z,101833.56
2019-01-10T05:37:45.244Z,101840.30
2019-01-10T05:40:14.264Z,101840.44
2019-01-10T05:42:42.755Z,101838.95
2019-01-10T05:45:13.654Z,101835.15
2019-01-10T05:47:43.222Z,101836.77
2019-01-10T05:50:17.710Z,101836.11
2019-01-10T05:52:46.173Z,101844.73
2019-01-10T05:55:17.216Z,101843.03
2019-01-10T05:57:45.726Z,101847.05
2019-01-10T06:00:19.901Z,101845.69
2019-01-10T06:02:48.357Z,101856.94
2019-01-10T06:05:16.943Z,101850.33
2019-01-10T06:07:45.571Z,101854.36
2019-01-10T06:10:19.343Z,101859.17
2019-01-10T06:12:47.794Z,101871.61
2019-01-10T06:15:16.699Z,101869.12
2019-01-10T06:17:45.218Z,101870.30
2019-01-10T06:20:18.991Z,101868.16
2019-01-10T06:22:47.533Z,101867.50
2019-01-10T06:25:16.177Z,101878.75
2019-01-10T06:27:44.698Z,101879.19
2019-01-10T06:30:18.843Z,101881.13
2019-01-10T06:32:47.346Z,101888.47
2019-01-10T06:35:15.796Z,101899.75
2019-01-10T06:37:47.554Z,101896.56
2019-01-10T06:40:18.558Z,101901.18
2019-01-10T06:42:47.010Z,101900.36
2019-01-10T06:45:17.166Z,101904.05
2019-01-10T06:47:46.170Z,101905.59
2019-01-10T06:50:16.368Z,101903.50
2019-01-10T06:52:44.984Z,101905.43
2019-01-10T06:55:13.744Z,101906.92
2019-01-10T06:57:42.207Z,101913.53
2019-01-10T07:00:16.734Z,101909.38
2019-01-10T07:02:48.468Z,101918.47
2019-01-10T07:05:16.968Z,101916.47
2019-01-10T07:07:45.691Z,101917.76
2019-01-10T07:10:17.411Z,101920.97
2019-01-10T07:12:45.976Z,101926.16
2019-01-10T07:15:14.872Z,101935.77
2019-01-10T07:17:45.030Z,101935.59
2019-01-10T07:20:14.001Z,101944.03
2019-01-10T07:22:49.231Z,101947.77
2019-01-10T07:25:18.137Z,101944.19
2019-01-10T07:27:48.067Z,101947.44
2019-01-10T07:30:19.761Z,101949.30
2019-01-10T07:32:48.295Z,101958.19
2019-01-10T07:35:16.868Z,101960.27
2019-01-10T07:37:51.499Z,101958.36
2019-01-10T07:40:21.693Z,101960.00
2019-01-10T07:45:24.201Z,101962.22
2019-01-10T07:47:53.140Z,101958.19
2019-01-10T07:50:26.615Z,101964.37
2019-01-10T07:52:55.199Z,101959.13
2019-01-10T07:55:23.865Z,101955.73
2019-01-10T07:57:52.326Z,101960.30
2019-01-10T08:00:20.950Z,101964.65
2019-01-10T08:02:49.498Z,101958.25
2019-01-10T08:05:18.003Z,101959.83
2019-01-10T08:07:46.591Z,101968.34
2019-01-10T08:10:16.810Z,101962.62
2019-01-10T08:12:45.548Z,101970.55
2019-01-10T08:15:17.047Z,101965.21
2019-01-10T08:17:45.623Z,101975.25
2019-01-10T08:20:14.450Z,101979.82
2019-01-10T08:22:43.495Z,101986.33
2019-01-10T08:25:12.661Z,101982.86
2019-01-10T08:27:42.712Z,101991.16
2019-01-10T08:30:16.930Z,101992.31
2019-01-10T08:32:45.401Z,101999.48
2019-01-10T08:35:16.627Z,102002.79
2019-01-10T08:37:45.090Z,101999.18
2019-01-10T08:40:13.654Z,102003.47
2019-01-10T08:42:42.182Z,102006.77
2019-01-10T08:45:21.091Z,102013.20
2019-01-10T08:47:42.026Z,102014.14
2019-01-10T08:50:16.133Z,102014.78
2019-01-10T08:52:45.030Z,102019.83
2019-01-10T08:55:13.536Z,102018.56
2019-01-10T08:57:41.989Z,102020.56
2019-01-10T09:00:13.982Z,102025.76
2019-01-10T09:02:42.441Z,102022.87
2019-01-10T09:05:12.262Z,102030.75
2019-01-10T09:07:42.471Z,102026.05
2019-01-10T09:10:24.778Z,102029.38
2019-01-10T09:12:53.419Z,102028.57
2019-01-10T09:15:25.239Z,102031.09
2019-01-10T09:17:52.133Z,102030.27
2019-01-10T09:20:20.743Z,102042.47
2019-01-10T09:22:49.163Z,102040.66
2019-01-10T09:25:17.950Z,102041.70
2019-01-10T09:27:46.701Z,102046.33
2019-01-10T09:30:17.795Z,102043.82
2019-01-10T09:32:48.356Z,102045.33
2019-01-10T09:35:17.154Z,102048.92
2019-01-10T09:37:45.996Z,102047.10
2019-01-10T09:40:21.744Z,102058.73
2019-01-10T09:42:50.335Z,102052.44
2019-01-10T09:45:21.386Z,102048.53
2019-01-10T09:47:49.815Z,102058.08
2019-01-10T09:50:20.725Z,102065.52
2019-01-10T09:52:49.471Z,102055.67
2019-01-10T09:55:18.032Z,102064.70
2019-01-10T09:57:49.299Z,102061.75
2019-01-10T10:00:22.133Z,102061.98
2019-01-10T10:02:50.561Z,102063.41
2019-01-10T10:05:55.494Z,102065.34
2019-01-10T10:08:26.733Z,102065.93
2019-01-10T10:10:56.815Z,102064.44
2019-01-10T10:13:25.328Z,102062.71
2019-01-10T10:15:53.822Z,102061.73
2019-01-10T10:18:22.794Z,102053.46
2019-01-10T10:20:51.304Z,102063.75
2019-01-10T10:23:26.707Z,102064.89
2019-01-10T10:25:50.010Z,102067.69
2019-01-10T10:28:18.505Z,102069.54
2019-01-10T10:30:47.147Z,102075.16
2019-01-10T10:33:15.647Z,102067.69
2019-01-10T10:35:44.078Z,102071.02
2019-01-10T10:38:12.627Z,102069.97
2019-01-10T10:40:41.252Z,102069.78
2019-01-10T10:43:09.677Z,102073.97
2019-01-10T10:45:38.179Z,102075.22
2019-01-10T10:48:06.687Z,102074.46
2019-01-10T10:50:35.227Z,102081.13
2019-01-10T10:53:04.897Z,102083.63
2019-01-10T10:55:33.486Z,102081.38
2019-01-10T10:58:02.078Z,102082.78
2019-01-10T11:00:30.941Z,102074.66
2019-01-10T11:02:59.611Z,102075.31
2019-01-10T11:05:28.178Z,102066.41
2019-01-10T11:07:56.777Z,102066.43
2019-01-10T11:10:25.313Z,102069.73
2019-01-10T11:12:54.143Z,102060.83
2019-01-10T11:15:22.727Z,102060.42
2019-01-10T11:17:51.338Z,102066.41
2019-01-10T11:20:21.897Z,102058.00
2019-01-10T11:22:50.684Z,102055.55
2019-01-10T11:25:21.595Z,102059.08
2019-01-10T11:27:50.167Z,102055.41
2019-01-10T11:30:20.341Z,102049.03
2019-01-10T11:32:48.929Z,102053.11
2019-01-10T11:35:17.610Z,102044.97
2019-01-10T11:37:46.151Z,102042.44
2019-01-10T11:40:17.316Z,102039.41
2019-01-10T11:42:45.797Z,102033.92
2019-01-10T11:45:19.821Z,102034.66
2019-01-10T11:47:48.411Z,102030.13
2019-01-10T11:50:17.400Z,102023.30
2019-01-10T11:52:46.375Z,102032.91
2019-01-10T11:55:15.627Z,102030.00
2019-01-10T11:57:44.806Z,102036.70
2019-01-10T12:00:21.889Z,102030.12
2019-01-10T12:02:50.593Z,102029.69
2019-01-10T12:05:19.029Z,102032.56
2019-01-10T12:07:47.549Z,102024.44
2019-01-10T12:10:16.090Z,102027.46
2019-01-10T12:12:44.625Z,102026.11
2019-01-10T12:15:13.588Z,102027.72
2019-01-10T12:17:44.838Z,102022.91
2019-01-10T12:20:17.902Z,102023.48
2019-01-10T12:22:47.129Z,102028.77
2019-01-10T12:25:17.432Z,102016.66
2019-01-10T12:27:46.310Z,102008.80
2019-01-10T12:30:17.858Z,102005.39
2019-01-10T12:32:46.439Z,102003.52
2019-01-10T12:35:14.999Z,102009.70
2019-01-10T12:37:43.515Z,102003.36
2019-01-10T12:40:14.099Z,102010.70
2019-01-10T12:42:47.912Z,102013.58
2019-01-10T12:45:18.470Z,102010.58
2019-01-10T12:47:47.093Z,102005.45
2019-01-10T12:50:18.447Z,102003.34
2019-01-10T12:52:46.944Z,102002.85
2019-01-10T12:55:15.488Z,102007.93
2019-01-10T12:57:44.091Z,102009.45
2019-01-10T13:00:15.670Z,102010.70
2019-01-10T13:02:44.214Z,102013.07
2019-01-10T13:05:13.147Z,102017.64
2019-01-10T13:07:41.864Z,102014.52
2019-01-10T13:10:15.949Z,102022.23
2019-01-10T13:12:44.580Z,102017.45
2019-01-10T13:15:15.903Z,102013.11
2019-01-10T13:17:44.824Z,102014.77
2019-01-10T13:20:13.571Z,102013.27
2019-01-10T13:22:42.163Z,102003.23
2019-01-10T13:25:15.959Z,102011.04
2019-01-10T13:27:44.586Z,102008.87
2019-01-10T13:30:16.348Z,102007.79
2019-01-10T13:32:44.907Z,101998.14
2019-01-10T13:35:13.594Z,102000.56
2019-01-10T13:37:42.191Z,102000.42
2019-01-10T13:40:12.479Z,101997.38
2019-01-10T13:42:41.468Z,101995.48
2019-01-10T13:45:12.336Z,101992.33
2019-01-10T13:47:41.217Z,101998.37
2019-01-10T13:50:16.067Z,101999.78
2019-01-10T13:52:44.603Z,102006.24
2019-01-10T13:55:15.931Z,102007.34
2019-01-10T13:57:44.933Z,102001.50
2019-01-10T14:00:16.900Z,102004.48
2019-01-10T14:02:45.544Z,101995.31
2019-01-10T14:05:14.124Z,101998.48
2019-01-10T14:07:42.696Z,101993.70
2019-01-10T14:10:13.911Z,102000.62
2019-01-10T14:12:42.533Z,101996.72
2019-01-10T14:15:17.225Z,101998.20
2019-01-10T14:17:45.730Z,101997.06
2019-01-10T14:20:15.242Z,101996.92
2019-01-10T14:22:43.797Z,101996.56
2019-01-10T14:25:12.375Z,101999.63
2019-01-10T14:27:40.965Z,102000.82
2019-01-10T14:30:18.700Z,101992.43
2019-01-10T14:32:47.387Z,101999.83
2019-01-10T14:35:15.988Z,102002.59
2019-01-10T14:37:44.676Z,101999.83
2019-01-10T14:40:13.574Z,101999.89
2019-01-10T14:42:42.147Z,102001.98
2019-01-10T14:45:15.913Z,102010.80
2019-01-10T14:47:44.517Z,102002.90
2019-01-10T14:50:13.924Z,102011.80
2019-01-10T14:52:42.451Z,102011.55
2019-01-10T14:55:15.105Z,102007.73
2019-01-10T14:57:43.732Z,102001.12
2019-01-10T15:00:17.905Z,101994.18
2019-01-10T15:02:46.477Z,101994.00
2019-01-10T15:05:15.016Z,102005.23
2019-01-10T15:07:43.550Z,102003.80
2019-01-10T15:10:12.372Z,102005.39
2019-01-10T15:12:41.966Z,102005.84
2019-01-10T15:15:13.707Z,102000.48
2019-01-10T15:17:42.369Z,102011.80
2019-01-10T15:20:17.046Z,102018.32
2019-01-10T15:22:45.499Z,102013.47
2019-01-10T15:25:14.303Z,102003.10
2019-01-10T15:27:42.835Z,101990.14
2019-01-10T15:30:17.060Z,101996.80
2019-01-10T15:32:45.636Z,101998.33
2019-01-10T15:35:14.955Z,102001.77
2019-01-10T15:37:43.467Z,101999.89
2019-01-10T15:40:15.142Z,101996.56
2019-01-10T15:42:43.704Z,101994.29
2019-01-10T15:45:15.615Z,101994.51
2019-01-10T15:47:45.796Z,101995.63
2019-01-10T15:50:16.986Z,101995.29
2019-01-10T15:52:45.630Z,101985.91
2019-01-10T15:55:16.707Z,101989.73
2019-01-10T15:57:45.249Z,102000.63
2019-01-10T16:00:22.733Z,101995.55
2019-01-10T16:02:51.814Z,102001.41
2019-01-10T16:05:20.366Z,102000.84
2019-01-10T16:07:49.197Z,102001.58
2019-01-10T16:10:21.779Z,102006.07
2019-01-10T16:12:50.695Z,102014.39
2019-01-10T16:15:23.955Z,102008.92
2019-01-10T16:17:52.879Z,102008.75
2019-01-10T16:20:21.601Z,102003.36
2019-01-10T16:22:50.149Z,102000.42
2019-01-10T16:25:20.018Z,102000.54
2019-01-10T16:27:48.587Z,101991.67
2019-01-10T16:30:22.536Z,101990.66
2019-01-10T16:32:55.228Z,101988.38
2019-01-10T16:35:23.891Z,101994.83
2019-01-10T16:37:52.732Z,101993.84
2019-01-10T16:40:21.641Z,101994.83
2019-01-10T16:42:50.330Z,101993.56
2019-01-10T16:45:21.947Z,101991.93
2019-01-10T16:47:50.480Z,101990.80
2019-01-10T16:50:19.043Z,101995.87
2019-01-10T16:52:47.680Z,101986.09
2019-01-10T16:55:16.723Z,101984.77
2019-01-10T16:57:45.372Z,101985.05
2019-01-10T17:00:19.700Z,101985.41
2019-01-10T17:02:49.837Z,101984.10
2019-01-10T17:05:20.512Z,101980.91
2019-01-10T17:07:48.953Z,101983.48
2019-01-10T17:10:20.831Z,101984.81
2019-01-10T17:12:49.494Z,101988.69
2019-01-10T17:15:18.073Z,101994.92
2019-01-10T17:17:46.534Z,101992.80
2019-01-10T17:20:20.845Z,101982.39
2019-01-10T17:22:49.575Z,101985.89
2019-01-10T17:25:18.606Z,101992.77
2019-01-10T17:27:47.312Z,101995.14
2019-01-10T17:30:21.999Z,101988.34
2019-01-10T17:32:50.825Z,101987.20
2019-01-10T17:35:23.401Z,101985.06
2019-01-10T17:37:52.009Z,101992.77
2019-01-10T17:40:22.221Z,101990.14
2019-01-10T17:42:50.969Z,101992.55
2019-01-10T17:45:22.382Z,101989.98
2019-01-10T17:47:50.926Z,101987.81
2019-01-10T17:50:20.228Z,101986.71
2019-01-10T17:52:48.826Z,101992.07
2019-01-10T17:55:17.399Z,101990.35
2019-01-10T17:57:45.961Z,101996.23
2019-01-10T18:00:17.282Z,101991.67
2019-01-10T18:02:45.730Z,101992.83
2019-01-10T18:05:14.488Z,101992.89
2019-01-10T18:07:43.036Z,101989.63
2019-01-10T18:10:17.479Z,101991.87
2019-01-10T18:12:46.107Z,101990.86
2019-01-10T18:15:20.398Z,101978.95
2019-01-10T18:17:50.398Z,101985.89
2019-01-10T18:20:25.001Z,101987.59
2019-01-10T18:22:53.609Z,101986.20
2019-01-10T18:25:23.291Z,101980.64
2019-01-10T18:27:51.839Z,101981.84
2019-01-10T18:30:22.843Z,101987.61
2019-01-10T18:32:51.545Z,101982.00
2019-01-10T18:35:26.032Z,101979.30
2019-01-10T18:37:51.021Z,101985.14
2019-01-10T18:40:20.241Z,101986.58
2019-01-10T18:42:48.853Z,101993.95
2019-01-10T18:45:26.226Z,101993.95
2019-01-10T18:47:57.302Z,101995.85
2019-01-10T18:50:26.016Z,101987.95
2019-01-10T18:52:54.558Z,101975.87
2019-01-10T18:55:23.861Z,101972.09
2019-01-10T18:57:52.523Z,101967.92
2019-01-10T19:00:26.095Z,101976.44
2019-01-10T19:02:55.274Z,101985.47
2019-01-10T19:05:23.870Z,101983.24
2019-01-10T19:07:52.479Z,101982.98
2019-01-10T19:10:22.956Z,101989.74
2019-01-10T19:12:51.682Z,101986.86
2019-01-10T19:15:20.519Z,101985.00
2019-01-10T19:17:49.087Z,101986.70
2019-01-10T19:20:25.677Z,101987.44
2019-01-10T19:22:55.063Z,101989.08
2019-01-10T19:25:23.589Z,101991.48
2019-01-10T19:27:52.233Z,101989.36
2019-01-10T19:30:26.702Z,101985.79
2019-01-10T19:32:55.513Z,101980.84
2019-01-10T19:35:24.190Z,101984.53
2019-01-10T19:37:55.839Z,101990.55
2019-01-10T19:40:26.059Z,101991.92
2019-01-10T19:42:54.689Z,101998.02
2019-01-10T19:45:23.869Z,102003.86
2019-01-10T19:47:52.843Z,102012.98
2019-01-10T19:50:25.644Z,102002.18
2019-01-10T19:52:54.375Z,102006.78
2019-01-10T19:55:23.720Z,102016.87
2019-01-10T19:57:52.669Z,102013.94
2019-01-10T20:00:27.519Z,102010.05
2019-01-10T20:02:56.321Z,102013.98
2019-01-10T20:05:24.882Z,102015.88
2019-01-10T20:07:53.587Z,102006.88
2019-01-10T20:10:22.152Z,102009.42
2019-01-10T20:12:51.130Z,102009.08
2019-01-10T20:15:21.329Z,102010.33
2019-01-10T20:17:50.198Z,102007.17
2019-01-10T20:20:28.133Z,102014.72
2019-01-10T20:22:58.009Z,102009.78
2019-01-10T20:25:26.908Z,102009.39
2019-01-10T20:27:56.044Z,102017.05
2019-01-10T20:30:24.908Z,102015.27
2019-01-10T20:32:53.654Z,102025.47
2019-01-10T20:35:22.606Z,102022.00
2019-01-10T20:38:03.318Z,102019.56
2019-01-10T20:40:35.605Z,102022.16
2019-01-10T20:43:07.778Z,102022.08
2019-01-10T20:45:36.286Z,102020.37
2019-01-10T20:48:05.083Z,102015.23
2019-01-10T20:50:33.858Z,102014.13
2019-01-10T20:53:05.687Z,102006.22
2019-01-10T20:55:34.704Z,102005.11
2019-01-10T20:58:03.706Z,102006.62
2019-01-10T21:00:32.549Z,101998.41
2019-01-10T21:03:01.237Z,102001.97
2019-01-10T21:05:30.187Z,102003.61
2019-01-10T21:07:59.748Z,102002.66
2019-01-10T21:10:29.154Z,102002.09
2019-01-10T21:12:59.019Z,101987.33
2019-01-10T21:15:33.388Z,101992.70
2019-01-10T21:18:02.537Z,101992.56
2019-01-10T21:20:31.381Z,101988.20
2019-01-10T21:23:03.095Z,101979.31
2019-01-10T21:25:31.919Z,101985.14
2019-01-10T21:28:01.409Z,101987.73
2019-01-10T21:30:32.554Z,101990.91
2019-01-10T21:33:01.957Z,101987.11
2019-01-10T21:35:33.784Z,101988.33
2019-01-10T21:38:06.463Z,101980.36
2019-01-10T21:40:35.285Z,101983.17
2019-01-10T21:43:04.394Z,101980.11
2019-01-10T21:45:33.646Z,101979.88
2019-01-10T21:48:02.801Z,101977.67
2019-01-10T21:50:33.964Z,101977.81
2019-01-10T21:53:04.595Z,101975.87
2019-01-10T21:55:33.772Z,101981.25
2019-01-10T21:58:04.014Z,101973.09
2019-01-10T22:00:34.139Z,101976.17
2019-01-10T22:03:03.173Z,101975.24
2019-01-10T22:05:32.121Z,101976.27
2019-01-10T22:08:04.248Z,101984.89
2019-01-10T22:10:36.196Z,101976.30
2019-01-10T22:13:08.171Z,101979.92
2019-01-10T22:15:40.246Z,101977.14
2019-01-10T22:18:09.096Z,101975.28
2019-01-10T22:20:39.509Z,101976.89
2019-01-10T22:23:08.333Z,101968.93
2019-01-10T22:25:37.281Z,101971.56
2019-01-10T22:28:08.021Z,101963.97
2019-01-10T22:30:36.799Z,101962.22
2019-01-10T22:33:06.091Z,101967.83
2019-01-10T22:35:34.818Z,101967.39
2019-01-10T22:38:03.568Z,101960.02
2019-01-10T22:40:33.853Z,101952.08
2019-01-10T22:43:02.871Z,101954.80
2019-01-10T22:45:31.682Z,101949.27
2019-01-10T22:48:00.671Z,101950.17
2019-01-10T22:50:30.751Z,101946.94
2019-01-10T22:52:59.803Z,101942.53
2019-01-10T22:55:28.659Z,101945.30
2019-01-10T22:57:57.130Z,101946.70
2019-01-10T23:00:54.619Z,101943.99
2019-01-10T23:03:23.341Z,101941.20
2019-01-10T23:05:52.199Z,101939.10
2019-01-10T23:08:24.591Z,101936.56
2019-01-10T23:10:53.303Z,101931.04
2019-01-10T23:13:21.884Z,101929.38
2019-01-10T23:15:51.872Z,101931.17
2019-01-10T23:18:20.483Z,101926.58
2019-01-10T23:20:54.631Z,101922.90
2019-01-10T23:23:23.252Z,101925.89
2019-01-10T23:25:55.423Z,101923.77
2019-01-10T23:28:24.150Z,101925.63
2019-01-10T23:30:58.042Z,101919.27
2019-01-10T23:33:27.367Z,101915.95
2019-01-10T23:36:00.844Z,101914.20
2019-01-10T23:38:29.952Z,101912.00
2019-01-10T23:40:58.962Z,101905.25
2019-01-10T23:43:27.470Z,101903.02
2019-01-10T23:45:56.197Z,101898.55
2019-01-10T23:48:24.889Z,101898.64
2019-01-10T23:50:53.455Z,101893.88
2019-01-10T23:53:22.037Z,101897.77
2019-01-10T23:55:50.676Z,101889.62
2019-01-10T23:58:19.321Z,101887.42
